Terminal Aerodrome Forecast
Issued by NWS

Home | Current Version | Previous Version | Text Only | Print | Product List | Glossary On
Versions: 1 2 3 4 5 6 7 8 9 10 11 12 13 14 15 16
006
FTUS46 KMTR 212353 CCA
TAFSNS
TAF COR
KSNS 212353Z 2200/2224 26014KT P6SM SKC
     FM220300 27008KT P6SM SKC
     FM220800 11004KT P6SM SKC
     FM222100 29015G20KT P6SM SKC=

USA.gov is the U.S. government's official web portal to all federal, state and local government web resources and services.